sensor_id;sensor_type;location;lat;lon;timestamp;P1;durP1;ratioP1;P2;durP2;ratioP2
14474;SDS011;7323;50.848;4.334;2022-10-31T00:00:19;13.13;;;8.83;;
14474;SDS011;7323;50.848;4.334;2022-10-31T00:02:46;13.63;;;9.00;;
14474;SDS011;7323;50.848;4.334;2022-10-31T00:05:11;13.40;;;7.97;;
14474;SDS011;7323;50.848;4.334;2022-10-31T00:07:39;15.67;;;9.03;;
14474;SDS011;7323;50.848;4.334;2022-10-31T00:10:05;13.43;;;7.97;;
14474;SDS011;7323;50.848;4.334;2022-10-31T00:12:31;13.20;;;7.57;;
14474;SDS011;7323;50.848;4.334;2022-10-31T00:15:03;13.73;;;8.43;;
14474;SDS011;7323;50.848;4.334;2022-10-31T00:17:35;11.63;;;7.33;;
14474;SDS011;7323;50.848;4.334;2022-10-31T00:20:19;12.00;;;8.00;;
14474;SDS011;7323;50.848;4.334;2022-10-31T00:22:47;13.20;;;8.27;;
14474;SDS011;7323;50.848;4.334;2022-10-31T00:25:36;10.73;;;7.93;;
14474;SDS011;7323;50.848;4.334;2022-10-31T00:28:08;14.37;;;9.00;;
14474;SDS011;7323;50.848;4.334;2022-10-31T00:30:36;15.40;;;9.13;;
14474;SDS011;7323;50.848;4.334;2022-10-31T00:33:03;11.83;;;8.83;;
14474;SDS011;7323;50.848;4.334;2022-10-31T00:35:30;13.87;;;9.00;;
14474;SDS011;7323;50.848;4.334;2022-10-31T00:37:59;13.50;;;8.70;;
14474;SDS011;7323;50.848;4.334;2022-10-31T00:40:33;13.37;;;8.33;;
14474;SDS011;7323;50.848;4.334;2022-10-31T00:43:01;15.50;;;9.40;;
14474;SDS011;7323;50.848;4.334;2022-10-31T00:45:27;13.17;;;8.40;;
14474;SDS011;7323;50.848;4.334;2022-10-31T00:47:53;16.10;;;8.63;;
14474;SDS011;7323;50.848;4.334;2022-10-31T00:50:19;14.70;;;8.93;;
14474;SDS011;7323;50.848;4.334;2022-10-31T00:52:46;12.23;;;8.57;;
14474;SDS011;7323;50.848;4.334;2022-10-31T00:55:12;13.73;;;8.77;;
14474;SDS011;7323;50.848;4.334;2022-10-31T01:00:13;12.57;;;8.60;;
14474;SDS011;7323;50.848;4.334;2022-10-31T01:02:38;13.53;;;8.17;;
14474;SDS011;7323;50.848;4.334;2022-10-31T01:05:04;12.03;;;8.67;;
14474;SDS011;7323;50.848;4.334;2022-10-31T01:07:30;15.93;;;7.90;;
14474;SDS011;7323;50.848;4.334;2022-10-31T01:09:56;11.33;;;8.37;;
14474;SDS011;7323;50.848;4.334;2022-10-31T01:12:23;11.97;;;8.17;;
14474;SDS011;7323;50.848;4.334;2022-10-31T01:14:49;15.93;;;8.43;;
14474;SDS011;7323;50.848;4.334;2022-10-31T01:17:15;15.70;;;8.80;;
14474;SDS011;7323;50.848;4.334;2022-10-31T01:19:41;12.07;;;8.43;;
14474;SDS011;7323;50.848;4.334;2022-10-31T01:22:06;15.33;;;8.10;;
14474;SDS011;7323;50.848;4.334;2022-10-31T01:24:32;12.77;;;7.80;;
14474;SDS011;7323;50.848;4.334;2022-10-31T01:26:57;11.33;;;7.67;;
14474;SDS011;7323;50.848;4.334;2022-10-31T01:29:24;11.13;;;7.30;;
14474;SDS011;7323;50.848;4.334;2022-10-31T01:31:50;13.40;;;8.17;;
14474;SDS011;7323;50.848;4.334;2022-10-31T01:34:16;11.77;;;8.00;;
14474;SDS011;7323;50.848;4.334;2022-10-31T01:36:43;14.20;;;8.93;;
14474;SDS011;7323;50.848;4.334;2022-10-31T01:39:12;13.77;;;8.47;;
14474;SDS011;7323;50.848;4.334;2022-10-31T01:41:41;13.43;;;7.77;;
14474;SDS011;7323;50.848;4.334;2022-10-31T01:55:41;12.00;;;7.93;;
14474;SDS011;7323;50.848;4.334;2022-10-31T01:58:12;13.23;;;7.63;;
14474;SDS011;7323;50.848;4.334;2022-10-31T02:00:41;12.93;;;7.93;;
14474;SDS011;7323;50.848;4.334;2022-10-31T02:03:09;11.87;;;8.10;;
14474;SDS011;7323;50.848;4.334;2022-10-31T02:05:35;11.37;;;7.33;;
14474;SDS011;7323;50.848;4.334;2022-10-31T02:08:06;11.67;;;8.13;;
14474;SDS011;7323;50.848;4.334;2022-10-31T02:10:46;12.70;;;8.10;;
14474;SDS011;7323;50.848;4.334;2022-10-31T02:13:23;14.23;;;8.53;;
14474;SDS011;7323;50.848;4.334;2022-10-31T02:15:53;10.10;;;7.53;;
14474;SDS011;7323;50.848;4.334;2022-10-31T02:18:21;10.10;;;7.70;;
14474;SDS011;7323;50.848;4.334;2022-10-31T02:21:02;13.50;;;7.77;;
14474;SDS011;7323;50.848;4.334;2022-10-31T02:32:08;14.10;;;8.57;;
14474;SDS011;7323;50.848;4.334;2022-10-31T02:37:40;13.17;;;7.87;;
14474;SDS011;7323;50.848;4.334;2022-10-31T02:43:21;11.27;;;8.50;;
14474;SDS011;7323;50.848;4.334;2022-10-31T02:45:56;13.60;;;8.60;;
14474;SDS011;7323;50.848;4.334;2022-10-31T02:48:28;11.20;;;8.17;;
14474;SDS011;7323;50.848;4.334;2022-10-31T02:51:00;11.67;;;8.40;;
14474;SDS011;7323;50.848;4.334;2022-10-31T02:53:31;14.77;;;8.60;;
14474;SDS011;7323;50.848;4.334;2022-10-31T02:56:18;13.20;;;8.93;;
14474;SDS011;7323;50.848;4.334;2022-10-31T02:58:48;15.10;;;9.20;;
14474;SDS011;7323;50.848;4.334;2022-10-31T03:01:25;12.40;;;8.87;;
14474;SDS011;7323;50.848;4.334;2022-10-31T03:04:22;13.23;;;8.30;;
14474;SDS011;7323;50.848;4.334;2022-10-31T03:09:40;14.67;;;8.90;;
14474;SDS011;7323;50.848;4.334;2022-10-31T03:20:40;12.07;;;8.77;;
14474;SDS011;7323;50.848;4.334;2022-10-31T03:23:12;16.23;;;9.57;;
14474;SDS011;7323;50.848;4.334;2022-10-31T03:25:41;13.20;;;8.87;;
14474;SDS011;7323;50.848;4.334;2022-10-31T03:30:40;13.50;;;9.53;;
14474;SDS011;7323;50.848;4.334;2022-10-31T03:33:10;13.67;;;9.27;;
14474;SDS011;7323;50.848;4.334;2022-10-31T03:35:42;14.83;;;9.80;;
14474;SDS011;7323;50.848;4.334;2022-10-31T03:38:12;13.87;;;10.27;;
14474;SDS011;7323;50.848;4.334;2022-10-31T03:40:40;15.07;;;10.10;;
14474;SDS011;7323;50.848;4.334;2022-10-31T03:43:11;16.37;;;10.03;;
14474;SDS011;7323;50.848;4.334;2022-10-31T03:45:43;14.73;;;9.80;;
14474;SDS011;7323;50.848;4.334;2022-10-31T03:48:11;14.47;;;9.53;;
14474;SDS011;7323;50.848;4.334;2022-10-31T03:51:26;15.40;;;10.00;;
14474;SDS011;7323;50.848;4.334;2022-10-31T03:54:06;13.60;;;9.47;;
14474;SDS011;7323;50.848;4.334;2022-10-31T03:56:54;19.97;;;10.23;;
14474;SDS011;7323;50.848;4.334;2022-10-31T03:59:32;14.83;;;9.57;;
14474;SDS011;7323;50.848;4.334;2022-10-31T04:02:03;14.37;;;9.73;;
14474;SDS011;7323;50.848;4.334;2022-10-31T04:04:33;13.80;;;10.20;;
14474;SDS011;7323;50.848;4.334;2022-10-31T04:06:59;13.53;;;9.50;;
14474;SDS011;7323;50.848;4.334;2022-10-31T04:09:26;15.10;;;10.27;;
14474;SDS011;7323;50.848;4.334;2022-10-31T04:11:55;13.50;;;9.77;;
14474;SDS011;7323;50.848;4.334;2022-10-31T04:14:24;15.73;;;9.77;;
14474;SDS011;7323;50.848;4.334;2022-10-31T04:16:52;14.17;;;9.33;;
14474;SDS011;7323;50.848;4.334;2022-10-31T04:19:18;13.83;;;9.70;;
14474;SDS011;7323;50.848;4.334;2022-10-31T04:21:43;13.87;;;10.07;;
14474;SDS011;7323;50.848;4.334;2022-10-31T04:24:09;15.00;;;9.63;;
14474;SDS011;7323;50.848;4.334;2022-10-31T04:26:35;12.20;;;9.10;;
14474;SDS011;7323;50.848;4.334;2022-10-31T04:29:01;13.90;;;9.00;;
14474;SDS011;7323;50.848;4.334;2022-10-31T04:31:26;10.67;;;8.63;;
14474;SDS011;7323;50.848;4.334;2022-10-31T04:33:54;13.93;;;10.03;;
14474;SDS011;7323;50.848;4.334;2022-10-31T04:36:20;15.07;;;9.30;;
14474;SDS011;7323;50.848;4.334;2022-10-31T04:38:45;12.20;;;8.57;;
14474;SDS011;7323;50.848;4.334;2022-10-31T04:41:11;17.83;;;9.80;;
14474;SDS011;7323;50.848;4.334;2022-10-31T04:43:37;13.40;;;10.40;;
14474;SDS011;7323;50.848;4.334;2022-10-31T04:46:03;16.23;;;9.93;;
14474;SDS011;7323;50.848;4.334;2022-10-31T04:48:29;12.50;;;10.60;;
14474;SDS011;7323;50.848;4.334;2022-10-31T04:50:59;13.33;;;9.83;;
14474;SDS011;7323;50.848;4.334;2022-10-31T04:53:25;15.07;;;10.60;;
14474;SDS011;7323;50.848;4.334;2022-10-31T04:55:51;14.03;;;10.27;;
14474;SDS011;7323;50.848;4.334;2022-10-31T04:58:18;14.90;;;9.50;;
14474;SDS011;7323;50.848;4.334;2022-10-31T05:00:44;16.07;;;9.70;;
14474;SDS011;7323;50.848;4.334;2022-10-31T05:03:15;15.23;;;9.53;;
14474;SDS011;7323;50.848;4.334;2022-10-31T05:05:41;15.87;;;9.97;;
14474;SDS011;7323;50.848;4.334;2022-10-31T05:08:07;15.53;;;9.20;;
14474;SDS011;7323;50.848;4.334;2022-10-31T05:10:33;11.30;;;9.07;;
14474;SDS011;7323;50.848;4.334;2022-10-31T05:13:00;16.70;;;9.73;;
14474;SDS011;7323;50.848;4.334;2022-10-31T05:15:27;16.20;;;9.93;;
14474;SDS011;7323;50.848;4.334;2022-10-31T05:17:53;13.00;;;9.57;;
14474;SDS011;7323;50.848;4.334;2022-10-31T05:20:21;16.27;;;9.90;;
14474;SDS011;7323;50.848;4.334;2022-10-31T05:22:51;14.50;;;9.57;;
14474;SDS011;7323;50.848;4.334;2022-10-31T05:25:19;13.70;;;9.83;;
14474;SDS011;7323;50.848;4.334;2022-10-31T05:27:51;11.80;;;9.47;;
14474;SDS011;7323;50.848;4.334;2022-10-31T05:30:40;14.63;;;10.03;;
14474;SDS011;7323;50.848;4.334;2022-10-31T05:33:06;15.07;;;9.53;;
14474;SDS011;7323;50.848;4.334;2022-10-31T05:35:32;15.17;;;10.10;;
14474;SDS011;7323;50.848;4.334;2022-10-31T05:37:58;15.33;;;10.53;;
14474;SDS011;7323;50.848;4.334;2022-10-31T05:40:25;18.57;;;10.17;;
14474;SDS011;7323;50.848;4.334;2022-10-31T05:42:53;15.17;;;10.47;;
14474;SDS011;7323;50.848;4.334;2022-10-31T05:45:20;13.20;;;9.67;;
14474;SDS011;7323;50.848;4.334;2022-10-31T05:47:54;16.33;;;9.97;;
14474;SDS011;7323;50.848;4.334;2022-10-31T05:50:25;15.00;;;9.63;;
14474;SDS011;7323;50.848;4.334;2022-10-31T05:52:59;13.00;;;9.37;;
14474;SDS011;7323;50.848;4.334;2022-10-31T05:55:42;14.87;;;9.80;;
14474;SDS011;7323;50.848;4.334;2022-10-31T05:58:08;13.97;;;9.13;;
14474;SDS011;7323;50.848;4.334;2022-10-31T06:00:36;15.93;;;9.77;;
14474;SDS011;7323;50.848;4.334;2022-10-31T06:03:06;15.27;;;9.87;;
14474;SDS011;7323;50.848;4.334;2022-10-31T06:05:33;13.93;;;10.27;;
14474;SDS011;7323;50.848;4.334;2022-10-31T06:07:58;15.97;;;10.43;;
14474;SDS011;7323;50.848;4.334;2022-10-31T06:10:26;14.47;;;9.80;;
14474;SDS011;7323;50.848;4.334;2022-10-31T06:12:54;17.37;;;9.60;;
14474;SDS011;7323;50.848;4.334;2022-10-31T06:15:21;13.77;;;9.37;;
14474;SDS011;7323;50.848;4.334;2022-10-31T06:17:56;17.57;;;10.33;;
14474;SDS011;7323;50.848;4.334;2022-10-31T06:20:23;11.93;;;10.40;;
14474;SDS011;7323;50.848;4.334;2022-10-31T06:22:49;13.77;;;9.50;;
14474;SDS011;7323;50.848;4.334;2022-10-31T06:25:15;17.13;;;10.53;;
14474;SDS011;7323;50.848;4.334;2022-10-31T06:27:42;15.40;;;9.87;;
14474;SDS011;7323;50.848;4.334;2022-10-31T06:30:10;19.23;;;10.37;;
14474;SDS011;7323;50.848;4.334;2022-10-31T06:32:37;19.47;;;11.37;;
14474;SDS011;7323;50.848;4.334;2022-10-31T06:35:03;16.17;;;10.67;;
14474;SDS011;7323;50.848;4.334;2022-10-31T06:37:29;17.27;;;10.20;;
14474;SDS011;7323;50.848;4.334;2022-10-31T06:39:56;13.77;;;10.53;;
14474;SDS011;7323;50.848;4.334;2022-10-31T06:42:21;15.67;;;9.50;;
14474;SDS011;7323;50.848;4.334;2022-10-31T06:44:48;12.80;;;10.43;;
14474;SDS011;7323;50.848;4.334;2022-10-31T06:47:15;14.67;;;10.40;;
14474;SDS011;7323;50.848;4.334;2022-10-31T06:49:48;20.80;;;10.83;;
14474;SDS011;7323;50.848;4.334;2022-10-31T06:52:15;15.43;;;10.70;;
14474;SDS011;7323;50.848;4.334;2022-10-31T06:54:41;19.33;;;10.73;;
14474;SDS011;7323;50.848;4.334;2022-10-31T06:57:06;16.77;;;10.20;;
14474;SDS011;7323;50.848;4.334;2022-10-31T06:59:32;15.90;;;10.67;;
14474;SDS011;7323;50.848;4.334;2022-10-31T07:01:59;19.20;;;10.80;;
14474;SDS011;7323;50.848;4.334;2022-10-31T07:04:27;17.77;;;10.63;;
14474;SDS011;7323;50.848;4.334;2022-10-31T07:06:58;15.10;;;10.60;;
14474;SDS011;7323;50.848;4.334;2022-10-31T07:09:45;18.73;;;10.50;;
14474;SDS011;7323;50.848;4.334;2022-10-31T07:12:22;19.97;;;11.37;;
14474;SDS011;7323;50.848;4.334;2022-10-31T07:14:49;16.43;;;10.37;;
14474;SDS011;7323;50.848;4.334;2022-10-31T07:17:35;16.87;;;10.27;;
14474;SDS011;7323;50.848;4.334;2022-10-31T07:20:07;18.00;;;10.40;;
14474;SDS011;7323;50.848;4.334;2022-10-31T07:22:37;17.13;;;10.10;;
14474;SDS011;7323;50.848;4.334;2022-10-31T07:25:21;19.67;;;10.13;;
14474;SDS011;7323;50.848;4.334;2022-10-31T07:27:50;19.20;;;10.10;;
14474;SDS011;7323;50.848;4.334;2022-10-31T07:30:16;17.23;;;10.40;;
14474;SDS011;7323;50.848;4.334;2022-10-31T07:32:44;19.03;;;11.07;;
14474;SDS011;7323;50.848;4.334;2022-10-31T07:35:12;18.27;;;10.20;;
14474;SDS011;7323;50.848;4.334;2022-10-31T07:37:39;17.87;;;10.43;;
14474;SDS011;7323;50.848;4.334;2022-10-31T07:40:06;19.27;;;10.90;;
14474;SDS011;7323;50.848;4.334;2022-10-31T07:42:43;20.90;;;11.70;;
14474;SDS011;7323;50.848;4.334;2022-10-31T07:45:11;18.13;;;10.47;;
14474;SDS011;7323;50.848;4.334;2022-10-31T07:47:41;14.77;;;9.67;;
14474;SDS011;7323;50.848;4.334;2022-10-31T07:50:08;15.67;;;10.47;;
14474;SDS011;7323;50.848;4.334;2022-10-31T07:52:36;16.90;;;10.50;;
14474;SDS011;7323;50.848;4.334;2022-10-31T07:55:02;16.87;;;10.20;;
14474;SDS011;7323;50.848;4.334;2022-10-31T07:57:28;15.10;;;10.37;;
14474;SDS011;7323;50.848;4.334;2022-10-31T07:59:54;13.50;;;9.33;;
14474;SDS011;7323;50.848;4.334;2022-10-31T08:02:19;13.97;;;9.63;;
14474;SDS011;7323;50.848;4.334;2022-10-31T08:04:45;15.00;;;9.93;;
14474;SDS011;7323;50.848;4.334;2022-10-31T08:07:11;18.90;;;8.63;;
14474;SDS011;7323;50.848;4.334;2022-10-31T08:09:37;11.47;;;8.27;;
14474;SDS011;7323;50.848;4.334;2022-10-31T08:12:03;14.83;;;8.73;;
14474;SDS011;7323;50.848;4.334;2022-10-31T08:14:29;15.13;;;9.23;;
14474;SDS011;7323;50.848;4.334;2022-10-31T08:16:55;9.53;;;8.27;;
14474;SDS011;7323;50.848;4.334;2022-10-31T08:19:21;11.43;;;8.83;;
14474;SDS011;7323;50.848;4.334;2022-10-31T08:21:51;14.53;;;8.77;;
14474;SDS011;7323;50.848;4.334;2022-10-31T08:24:17;15.43;;;8.60;;
14474;SDS011;7323;50.848;4.334;2022-10-31T08:26:45;14.83;;;9.30;;
14474;SDS011;7323;50.848;4.334;2022-10-31T08:29:11;13.93;;;8.67;;
14474;SDS011;7323;50.848;4.334;2022-10-31T08:31:36;10.63;;;8.53;;
14474;SDS011;7323;50.848;4.334;2022-10-31T08:34:02;14.23;;;8.33;;
14474;SDS011;7323;50.848;4.334;2022-10-31T08:36:28;11.70;;;7.70;;
14474;SDS011;7323;50.848;4.334;2022-10-31T08:38:54;13.10;;;8.10;;
14474;SDS011;7323;50.848;4.334;2022-10-31T08:41:20;12.33;;;7.43;;
14474;SDS011;7323;50.848;4.334;2022-10-31T08:43:46;10.13;;;7.60;;
14474;SDS011;7323;50.848;4.334;2022-10-31T08:46:12;8.90;;;6.77;;
14474;SDS011;7323;50.848;4.334;2022-10-31T08:48:38;10.53;;;7.03;;
14474;SDS011;7323;50.848;4.334;2022-10-31T08:51:04;12.20;;;6.80;;
14474;SDS011;7323;50.848;4.334;2022-10-31T08:53:30;11.47;;;7.23;;
14474;SDS011;7323;50.848;4.334;2022-10-31T08:55:56;11.63;;;7.30;;
14474;SDS011;7323;50.848;4.334;2022-10-31T08:58:22;12.80;;;7.43;;
14474;SDS011;7323;50.848;4.334;2022-10-31T09:00:49;12.00;;;7.73;;
14474;SDS011;7323;50.848;4.334;2022-10-31T09:03:22;8.67;;;6.97;;
14474;SDS011;7323;50.848;4.334;2022-10-31T09:05:50;9.40;;;6.47;;
14474;SDS011;7323;50.848;4.334;2022-10-31T09:08:19;14.53;;;9.23;;
14474;SDS011;7323;50.848;4.334;2022-10-31T09:10:45;49.83;;;35.97;;
14474;SDS011;7323;50.848;4.334;2022-10-31T09:13:12;32.50;;;22.27;;
14474;SDS011;7323;50.848;4.334;2022-10-31T09:15:40;14.03;;;9.67;;
14474;SDS011;7323;50.848;4.334;2022-10-31T09:18:08;10.73;;;6.80;;
14474;SDS011;7323;50.848;4.334;2022-10-31T09:20:37;9.67;;;7.23;;
14474;SDS011;7323;50.848;4.334;2022-10-31T09:23:05;13.70;;;7.17;;
14474;SDS011;7323;50.848;4.334;2022-10-31T09:25:32;11.27;;;6.90;;
14474;SDS011;7323;50.848;4.334;2022-10-31T09:28:01;11.20;;;7.50;;
14474;SDS011;7323;50.848;4.334;2022-10-31T09:30:28;10.53;;;7.40;;
14474;SDS011;7323;50.848;4.334;2022-10-31T09:32:59;14.47;;;7.70;;
14474;SDS011;7323;50.848;4.334;2022-10-31T09:35:30;11.27;;;7.60;;
14474;SDS011;7323;50.848;4.334;2022-10-31T09:38:11;11.23;;;7.30;;
14474;SDS011;7323;50.848;4.334;2022-10-31T09:40:43;10.57;;;6.67;;
14474;SDS011;7323;50.848;4.334;2022-10-31T09:52:26;14.20;;;7.83;;
14474;SDS011;7323;50.848;4.334;2022-10-31T09:57:27;11.67;;;7.10;;
14474;SDS011;7323;50.848;4.334;2022-10-31T09:59:56;13.67;;;7.00;;
14474;SDS011;7323;50.848;4.334;2022-10-31T10:02:24;11.33;;;7.13;;
14474;SDS011;7323;50.848;4.334;2022-10-31T10:05:05;11.53;;;6.87;;
14474;SDS011;7323;50.848;4.334;2022-10-31T10:10:41;12.27;;;6.30;;
14474;SDS011;7323;50.848;4.334;2022-10-31T10:13:37;9.90;;;7.10;;
14474;SDS011;7323;50.848;4.334;2022-10-31T10:16:09;11.83;;;7.63;;
14474;SDS011;7323;50.848;4.334;2022-10-31T10:18:42;13.57;;;7.20;;
14474;SDS011;7323;50.848;4.334;2022-10-31T10:21:28;10.93;;;7.13;;
14474;SDS011;7323;50.848;4.334;2022-10-31T10:32:26;9.83;;;6.63;;
14474;SDS011;7323;50.848;4.334;2022-10-31T10:34:56;10.53;;;6.80;;
14474;SDS011;7323;50.848;4.334;2022-10-31T10:37:31;14.97;;;7.10;;
14474;SDS011;7323;50.848;4.334;2022-10-31T10:42:41;14.63;;;7.50;;
14474;SDS011;7323;50.848;4.334;2022-10-31T10:45:28;11.97;;;8.33;;
14474;SDS011;7323;50.848;4.334;2022-10-31T10:48:16;12.47;;;7.70;;
14474;SDS011;7323;50.848;4.334;2022-10-31T10:51:02;16.10;;;8.03;;
14474;SDS011;7323;50.848;4.334;2022-10-31T10:53:43;15.23;;;7.77;;
14474;SDS011;7323;50.848;4.334;2022-10-31T10:59:20;12.50;;;8.00;;
14474;SDS011;7323;50.848;4.334;2022-10-31T11:01:51;12.73;;;7.50;;
14474;SDS011;7323;50.848;4.334;2022-10-31T11:06:58;13.03;;;8.83;;
14474;SDS011;7323;50.848;4.334;2022-10-31T11:09:25;13.03;;;8.30;;
14474;SDS011;7323;50.848;4.334;2022-10-31T11:11:51;13.37;;;7.97;;
14474;SDS011;7323;50.848;4.334;2022-10-31T11:14:18;11.77;;;7.97;;
14474;SDS011;7323;50.848;4.334;2022-10-31T11:16:46;17.13;;;10.57;;
14474;SDS011;7323;50.848;4.334;2022-10-31T11:21:44;15.97;;;8.47;;
14474;SDS011;7323;50.848;4.334;2022-10-31T11:26:41;13.63;;;7.83;;
14474;SDS011;7323;50.848;4.334;2022-10-31T11:29:26;15.57;;;7.93;;
14474;SDS011;7323;50.848;4.334;2022-10-31T11:31:56;11.93;;;7.57;;
14474;SDS011;7323;50.848;4.334;2022-10-31T11:34:59;13.67;;;7.63;;
14474;SDS011;7323;50.848;4.334;2022-10-31T11:37:49;11.67;;;7.50;;
14474;SDS011;7323;50.848;4.334;2022-10-31T11:40:34;15.90;;;7.67;;
14474;SDS011;7323;50.848;4.334;2022-10-31T11:43:12;14.90;;;7.50;;
14474;SDS011;7323;50.848;4.334;2022-10-31T11:45:50;14.77;;;8.00;;
14474;SDS011;7323;50.848;4.334;2022-10-31T11:48:19;13.93;;;8.00;;
14474;SDS011;7323;50.848;4.334;2022-10-31T11:50:57;15.53;;;7.80;;
14474;SDS011;7323;50.848;4.334;2022-10-31T11:53:29;13.87;;;7.60;;
14474;SDS011;7323;50.848;4.334;2022-10-31T11:56:15;13.40;;;7.63;;
14474;SDS011;7323;50.848;4.334;2022-10-31T11:58:54;14.93;;;8.10;;
14474;SDS011;7323;50.848;4.334;2022-10-31T12:01:25;15.30;;;8.87;;
14474;SDS011;7323;50.848;4.334;2022-10-31T12:04:10;16.60;;;9.10;;
14474;SDS011;7323;50.848;4.334;2022-10-31T12:06:42;15.40;;;8.30;;
14474;SDS011;7323;50.848;4.334;2022-10-31T12:09:21;13.27;;;8.50;;
14474;SDS011;7323;50.848;4.334;2022-10-31T12:15:24;17.77;;;8.97;;
14474;SDS011;7323;50.848;4.334;2022-10-31T12:24:29;15.77;;;8.97;;
14474;SDS011;7323;50.848;4.334;2022-10-31T12:27:26;15.73;;;8.20;;
14474;SDS011;7323;50.848;4.334;2022-10-31T12:36:10;13.93;;;7.97;;
14474;SDS011;7323;50.848;4.334;2022-10-31T12:48:17;16.03;;;7.87;;
14474;SDS011;7323;50.848;4.334;2022-10-31T12:56:19;9.97;;;6.80;;
14474;SDS011;7323;50.848;4.334;2022-10-31T12:59:10;11.80;;;6.37;;
14474;SDS011;7323;50.848;4.334;2022-10-31T13:01:59;11.97;;;6.03;;
14474;SDS011;7323;50.848;4.334;2022-10-31T13:04:53;13.47;;;6.20;;
14474;SDS011;7323;50.848;4.334;2022-10-31T13:07:32;11.67;;;6.13;;
14474;SDS011;7323;50.848;4.334;2022-10-31T13:10:19;11.17;;;6.27;;
14474;SDS011;7323;50.848;4.334;2022-10-31T13:12:51;13.10;;;6.87;;
14474;SDS011;7323;50.848;4.334;2022-10-31T13:15:24;13.40;;;6.97;;
14474;SDS011;7323;50.848;4.334;2022-10-31T13:20:32;15.50;;;6.60;;
14474;SDS011;7323;50.848;4.334;2022-10-31T13:25:53;14.53;;;6.90;;
14474;SDS011;7323;50.848;4.334;2022-10-31T13:31:04;13.30;;;6.67;;
14474;SDS011;7323;50.848;4.334;2022-10-31T13:38:51;13.63;;;6.67;;
14474;SDS011;7323;50.848;4.334;2022-10-31T13:44:29;13.43;;;6.43;;
14474;SDS011;7323;50.848;4.334;2022-10-31T13:46:56;13.17;;;6.90;;
14474;SDS011;7323;50.848;4.334;2022-10-31T13:59:58;12.53;;;7.20;;
14474;SDS011;7323;50.848;4.334;2022-10-31T14:02:30;13.20;;;6.77;;
14474;SDS011;7323;50.848;4.334;2022-10-31T14:04:59;11.70;;;6.87;;
14474;SDS011;7323;50.848;4.334;2022-10-31T14:07:28;15.13;;;6.67;;
14474;SDS011;7323;50.848;4.334;2022-10-31T14:09:56;14.80;;;7.10;;
14474;SDS011;7323;50.848;4.334;2022-10-31T14:12:34;12.50;;;7.03;;
14474;SDS011;7323;50.848;4.334;2022-10-31T14:15:11;12.53;;;6.67;;
14474;SDS011;7323;50.848;4.334;2022-10-31T14:20:22;12.67;;;7.40;;
14474;SDS011;7323;50.848;4.334;2022-10-31T14:22:49;11.73;;;7.10;;
14474;SDS011;7323;50.848;4.334;2022-10-31T14:27:56;13.33;;;6.10;;
14474;SDS011;7323;50.848;4.334;2022-10-31T14:30:24;14.40;;;5.70;;
14474;SDS011;7323;50.848;4.334;2022-10-31T14:32:58;12.77;;;5.83;;
14474;SDS011;7323;50.848;4.334;2022-10-31T14:38:25;10.33;;;6.03;;
14474;SDS011;7323;50.848;4.334;2022-10-31T14:44:17;10.57;;;4.63;;
14474;SDS011;7323;50.848;4.334;2022-10-31T14:55:15;10.10;;;4.63;;
14474;SDS011;7323;50.848;4.334;2022-10-31T15:00:56;12.07;;;5.13;;
14474;SDS011;7323;50.848;4.334;2022-10-31T15:03:42;12.30;;;5.67;;
14474;SDS011;7323;50.848;4.334;2022-10-31T15:06:46;10.30;;;4.77;;
14474;SDS011;7323;50.848;4.334;2022-10-31T15:09:29;13.07;;;5.43;;
14474;SDS011;7323;50.848;4.334;2022-10-31T15:18:28;10.70;;;6.10;;
14474;SDS011;7323;50.848;4.334;2022-10-31T15:21:02;14.70;;;6.03;;
14474;SDS011;7323;50.848;4.334;2022-10-31T15:23:32;13.43;;;6.30;;
14474;SDS011;7323;50.848;4.334;2022-10-31T15:26:00;14.30;;;6.30;;
14474;SDS011;7323;50.848;4.334;2022-10-31T15:28:28;14.67;;;6.73;;
14474;SDS011;7323;50.848;4.334;2022-10-31T15:30:56;13.30;;;6.10;;
14474;SDS011;7323;50.848;4.334;2022-10-31T15:33:31;15.40;;;6.30;;
14474;SDS011;7323;50.848;4.334;2022-10-31T15:36:06;17.67;;;6.70;;
14474;SDS011;7323;50.848;4.334;2022-10-31T15:38:49;13.10;;;6.30;;
14474;SDS011;7323;50.848;4.334;2022-10-31T15:41:36;11.90;;;6.90;;
14474;SDS011;7323;50.848;4.334;2022-10-31T15:44:26;14.13;;;7.27;;
14474;SDS011;7323;50.848;4.334;2022-10-31T15:47:01;12.50;;;6.83;;
14474;SDS011;7323;50.848;4.334;2022-10-31T15:49:47;16.87;;;7.13;;
14474;SDS011;7323;50.848;4.334;2022-10-31T15:55:21;14.17;;;7.40;;
14474;SDS011;7323;50.848;4.334;2022-10-31T15:58:13;16.83;;;7.80;;
14474;SDS011;7323;50.848;4.334;2022-10-31T16:06:01;17.03;;;8.63;;
14474;SDS011;7323;50.848;4.334;2022-10-31T16:14:18;14.90;;;8.60;;
14474;SDS011;7323;50.848;4.334;2022-10-31T16:16:50;13.40;;;8.40;;
14474;SDS011;7323;50.848;4.334;2022-10-31T16:19:23;18.33;;;9.20;;
14474;SDS011;7323;50.848;4.334;2022-10-31T16:22:13;19.13;;;9.40;;
14474;SDS011;7323;50.848;4.334;2022-10-31T16:24:46;16.67;;;9.93;;
14474;SDS011;7323;50.848;4.334;2022-10-31T16:27:31;17.53;;;9.07;;
14474;SDS011;7323;50.848;4.334;2022-10-31T16:29:59;12.07;;;8.10;;
14474;SDS011;7323;50.848;4.334;2022-10-31T16:32:32;16.40;;;8.50;;
14474;SDS011;7323;50.848;4.334;2022-10-31T16:35:34;14.87;;;8.70;;
14474;SDS011;7323;50.848;4.334;2022-10-31T16:38:02;19.83;;;9.40;;
14474;SDS011;7323;50.848;4.334;2022-10-31T16:40:31;19.00;;;9.70;;
14474;SDS011;7323;50.848;4.334;2022-10-31T16:43:00;16.37;;;9.77;;
14474;SDS011;7323;50.848;4.334;2022-10-31T16:45:27;14.97;;;9.93;;
14474;SDS011;7323;50.848;4.334;2022-10-31T16:47:54;20.63;;;11.70;;
14474;SDS011;7323;50.848;4.334;2022-10-31T16:50:35;19.87;;;11.07;;
14474;SDS011;7323;50.848;4.334;2022-10-31T16:53:09;14.97;;;9.57;;
14474;SDS011;7323;50.848;4.334;2022-10-31T16:58:34;19.63;;;11.23;;
14474;SDS011;7323;50.848;4.334;2022-10-31T17:01:04;23.67;;;11.27;;
14474;SDS011;7323;50.848;4.334;2022-10-31T17:03:34;17.33;;;9.80;;
14474;SDS011;7323;50.848;4.334;2022-10-31T17:06:00;14.27;;;9.27;;
14474;SDS011;7323;50.848;4.334;2022-10-31T17:08:26;19.07;;;9.30;;
14474;SDS011;7323;50.848;4.334;2022-10-31T17:10:56;15.47;;;7.77;;
14474;SDS011;7323;50.848;4.334;2022-10-31T17:13:42;16.43;;;8.57;;
14474;SDS011;7323;50.848;4.334;2022-10-31T17:16:07;12.43;;;7.80;;
14474;SDS011;7323;50.848;4.334;2022-10-31T17:18:33;15.97;;;7.80;;
14474;SDS011;7323;50.848;4.334;2022-10-31T17:21:03;14.67;;;7.23;;
14474;SDS011;7323;50.848;4.334;2022-10-31T17:23:34;13.13;;;7.37;;
14474;SDS011;7323;50.848;4.334;2022-10-31T17:26:00;14.10;;;6.73;;
14474;SDS011;7323;50.848;4.334;2022-10-31T17:28:26;14.03;;;7.30;;
14474;SDS011;7323;50.848;4.334;2022-10-31T17:30:55;13.17;;;7.10;;
14474;SDS011;7323;50.848;4.334;2022-10-31T17:33:23;11.77;;;6.13;;
14474;SDS011;7323;50.848;4.334;2022-10-31T17:35:51;10.77;;;7.23;;
14474;SDS011;7323;50.848;4.334;2022-10-31T17:38:19;11.93;;;7.07;;
14474;SDS011;7323;50.848;4.334;2022-10-31T17:40:48;18.63;;;7.23;;
14474;SDS011;7323;50.848;4.334;2022-10-31T17:43:17;17.27;;;7.07;;
14474;SDS011;7323;50.848;4.334;2022-10-31T17:45:45;11.53;;;5.90;;
14474;SDS011;7323;50.848;4.334;2022-10-31T17:48:19;12.57;;;6.73;;
14474;SDS011;7323;50.848;4.334;2022-10-31T17:50:45;14.10;;;6.90;;
14474;SDS011;7323;50.848;4.334;2022-10-31T17:53:11;20.20;;;7.30;;
14474;SDS011;7323;50.848;4.334;2022-10-31T17:55:38;14.07;;;6.33;;
14474;SDS011;7323;50.848;4.334;2022-10-31T17:58:04;12.20;;;6.40;;
14474;SDS011;7323;50.848;4.334;2022-10-31T18:00:32;12.43;;;6.87;;
14474;SDS011;7323;50.848;4.334;2022-10-31T18:02:58;14.73;;;6.77;;
14474;SDS011;7323;50.848;4.334;2022-10-31T18:05:27;13.60;;;7.43;;
14474;SDS011;7323;50.848;4.334;2022-10-31T18:07:54;13.30;;;7.40;;
14474;SDS011;7323;50.848;4.334;2022-10-31T18:10:20;13.10;;;6.63;;
14474;SDS011;7323;50.848;4.334;2022-10-31T18:12:46;12.63;;;5.90;;